sensor_id;sensor_type;location;lat;lon;timestamp;P1;durP1;ratioP1;P2;durP2;ratioP2
12912;SDS011;6524;51.368;11.984;2023-04-07T00:55:51;14.63;;;13.03;;
12912;SDS011;6524;51.368;11.984;2023-04-07T04:05:12;15.70;;;12.40;;
12912;SDS011;6524;51.368;11.984;2023-04-07T04:10:12;14.50;;;12.87;;
12912;SDS011;6524;51.368;11.984;2023-04-07T04:15:13;15.53;;;13.27;;
12912;SDS011;6524;51.368;11.984;2023-04-07T04:20:14;14.57;;;13.17;;
12912;SDS011;6524;51.368;11.984;2023-04-07T04:25:15;14.83;;;13.33;;
12912;SDS011;6524;51.368;11.984;2023-04-07T04:30:16;13.77;;;12.30;;
12912;SDS011;6524;51.368;11.984;2023-04-07T04:35:16;13.17;;;11.80;;
12912;SDS011;6524;51.368;11.984;2023-04-07T04:40:17;14.17;;;12.67;;
12912;SDS011;6524;51.368;11.984;2023-04-07T04:45:17;14.50;;;12.60;;
12912;SDS011;6524;51.368;11.984;2023-04-07T04:50:18;14.57;;;13.03;;
12912;SDS011;6524;51.368;11.984;2023-04-07T04:55:18;14.43;;;12.93;;
12912;SDS011;6524;51.368;11.984;2023-04-07T05:00:18;14.20;;;11.97;;
12912;SDS011;6524;51.368;11.984;2023-04-07T05:05:19;13.47;;;12.07;;
12912;SDS011;6524;51.368;11.984;2023-04-07T05:10:19;12.70;;;11.30;;
12912;SDS011;6524;51.368;11.984;2023-04-07T05:15:20;13.60;;;12.07;;
12912;SDS011;6524;51.368;11.984;2023-04-07T05:20:20;15.20;;;12.90;;
12912;SDS011;6524;51.368;11.984;2023-04-07T05:25:21;14.20;;;12.63;;
12912;SDS011;6524;51.368;11.984;2023-04-07T05:30:21;14.05;;;12.30;;
12912;SDS011;6524;51.368;11.984;2023-04-07T05:35:21;14.33;;;12.83;;
12912;SDS011;6524;51.368;11.984;2023-04-07T05:40:22;13.27;;;11.83;;
12912;SDS011;6524;51.368;11.984;2023-04-07T05:45:23;13.67;;;11.70;;
12912;SDS011;6524;51.368;11.984;2023-04-07T05:50:23;15.07;;;12.30;;
12912;SDS011;6524;51.368;11.984;2023-04-07T05:55:23;13.63;;;12.20;;
12912;SDS011;6524;51.368;11.984;2023-04-07T06:00:24;14.23;;;12.73;;
12912;SDS011;6524;51.368;11.984;2023-04-07T06:05:24;13.43;;;12.13;;
12912;SDS011;6524;51.368;11.984;2023-04-07T06:10:25;14.13;;;12.50;;
12912;SDS011;6524;51.368;11.984;2023-04-07T06:15:25;13.13;;;11.73;;
12912;SDS011;6524;51.368;11.984;2023-04-07T06:20:26;13.70;;;12.20;;
12912;SDS011;6524;51.368;11.984;2023-04-07T06:25:26;12.53;;;11.23;;
12912;SDS011;6524;51.368;11.984;2023-04-07T06:30:27;14.40;;;12.63;;
12912;SDS011;6524;51.368;11.984;2023-04-07T06:35:27;13.23;;;11.80;;
12912;SDS011;6524;51.368;11.984;2023-04-07T06:40:28;12.93;;;11.63;;
12912;SDS011;6524;51.368;11.984;2023-04-07T06:45:28;12.90;;;11.70;;
12912;SDS011;6524;51.368;11.984;2023-04-07T06:50:28;13.40;;;12.03;;
12912;SDS011;6524;51.368;11.984;2023-04-07T06:55:29;13.40;;;12.10;;
12912;SDS011;6524;51.368;11.984;2023-04-07T07:00:30;13.90;;;12.47;;
12912;SDS011;6524;51.368;11.984;2023-04-07T07:05:30;13.30;;;11.90;;
12912;SDS011;6524;51.368;11.984;2023-04-07T07:10:31;12.97;;;11.67;;
12912;SDS011;6524;51.368;11.984;2023-04-07T07:15:31;13.83;;;12.40;;
12912;SDS011;6524;51.368;11.984;2023-04-07T07:20:32;13.87;;;12.47;;
12912;SDS011;6524;51.368;11.984;2023-04-07T07:25:32;12.87;;;11.67;;
12912;SDS011;6524;51.368;11.984;2023-04-07T07:30:32;12.60;;;11.40;;
12912;SDS011;6524;51.368;11.984;2023-04-07T07:35:33;11.60;;;10.48;;
12912;SDS011;6524;51.368;11.984;2023-04-07T07:40:33;11.85;;;10.75;;
12912;SDS011;6524;51.368;11.984;2023-04-07T07:45:33;12.25;;;11.18;;
12912;SDS011;6524;51.368;11.984;2023-04-07T07:50:34;11.95;;;10.85;;
12912;SDS011;6524;51.368;11.984;2023-04-07T07:55:34;12.00;;;10.90;;
12912;SDS011;6524;51.368;11.984;2023-04-07T08:00:35;12.18;;;11.07;;
12912;SDS011;6524;51.368;11.984;2023-04-07T08:05:35;10.45;;;9.65;;
12912;SDS011;6524;51.368;11.984;2023-04-07T08:10:36;10.50;;;9.60;;
12912;SDS011;6524;51.368;11.984;2023-04-07T08:15:36;9.93;;;9.03;;
12912;SDS011;6524;51.368;11.984;2023-04-07T08:20:36;10.25;;;9.43;;
12912;SDS011;6524;51.368;11.984;2023-04-07T08:25:37;12.43;;;11.43;;
12912;SDS011;6524;51.368;11.984;2023-04-07T08:30:39;9.93;;;9.15;;
12912;SDS011;6524;51.368;11.984;2023-04-07T08:35:39;9.32;;;8.52;;
12912;SDS011;6524;51.368;11.984;2023-04-07T08:40:40;9.63;;;8.80;;
12912;SDS011;6524;51.368;11.984;2023-04-07T08:45:40;10.10;;;9.20;;
12912;SDS011;6524;51.368;11.984;2023-04-07T08:50:42;8.70;;;7.85;;
12912;SDS011;6524;51.368;11.984;2023-04-07T08:55:44;9.23;;;8.43;;
12912;SDS011;6524;51.368;11.984;2023-04-07T09:00:45;9.15;;;8.40;;
12912;SDS011;6524;51.368;11.984;2023-04-07T09:05:48;8.40;;;7.70;;
12912;SDS011;6524;51.368;11.984;2023-04-07T09:10:51;8.70;;;7.97;;
12912;SDS011;6524;51.368;11.984;2023-04-07T09:15:52;8.75;;;7.95;;
12912;SDS011;6524;51.368;11.984;2023-04-07T09:21:00;8.05;;;7.25;;
12912;SDS011;6524;51.368;11.984;2023-04-07T09:31:21;7.80;;;7.00;;
12912;SDS011;6524;51.368;11.984;2023-04-07T09:36:25;6.75;;;6.15;;
12912;SDS011;6524;51.368;11.984;2023-04-07T09:41:29;8.13;;;7.40;;
12912;SDS011;6524;51.368;11.984;2023-04-07T09:46:31;8.40;;;7.60;;
12912;SDS011;6524;51.368;11.984;2023-04-07T09:51:34;8.23;;;7.40;;
12912;SDS011;6524;51.368;11.984;2023-04-07T09:56:51;8.20;;;7.40;;
12912;SDS011;6524;51.368;11.984;2023-04-07T10:01:51;8.32;;;7.60;;
12912;SDS011;6524;51.368;11.984;2023-04-07T10:06:52;8.73;;;7.93;;
12912;SDS011;6524;51.368;11.984;2023-04-07T10:11:54;8.85;;;7.95;;
12912;SDS011;6524;51.368;11.984;2023-04-07T10:16:58;8.80;;;8.00;;
12912;SDS011;6524;51.368;11.984;2023-04-07T10:22:01;9.05;;;8.25;;
12912;SDS011;6524;51.368;11.984;2023-04-07T10:27:06;8.90;;;8.00;;
12912;SDS011;6524;51.368;11.984;2023-04-07T10:32:10;9.85;;;8.85;;
12912;SDS011;6524;51.368;11.984;2023-04-07T10:37:12;9.45;;;8.52;;
12912;SDS011;6524;51.368;11.984;2023-04-07T10:53:05;10.57;;;9.52;;
12912;SDS011;6524;51.368;11.984;2023-04-07T10:58:18;10.23;;;9.23;;
12912;SDS011;6524;51.368;11.984;2023-04-07T11:03:32;10.18;;;9.18;;
12912;SDS011;6524;51.368;11.984;2023-04-07T11:09:03;10.40;;;9.40;;
12912;SDS011;6524;51.368;11.984;2023-04-07T11:14:03;11.45;;;10.25;;
12912;SDS011;6524;51.368;11.984;2023-04-07T11:19:03;10.40;;;9.38;;
12912;SDS011;6524;51.368;11.984;2023-04-07T11:24:04;11.43;;;10.35;;
12912;SDS011;6524;51.368;11.984;2023-04-07T11:29:04;11.15;;;10.15;;
12912;SDS011;6524;51.368;11.984;2023-04-07T11:34:05;11.10;;;10.00;;
12912;SDS011;6524;51.368;11.984;2023-04-07T11:39:19;11.07;;;10.05;;
12912;SDS011;6524;51.368;11.984;2023-04-07T11:44:20;11.18;;;10.15;;
12912;SDS011;6524;51.368;11.984;2023-04-07T11:49:21;10.13;;;9.23;;
12912;SDS011;6524;51.368;11.984;2023-04-07T11:54:25;10.65;;;9.65;;
12912;SDS011;6524;51.368;11.984;2023-04-07T11:59:26;11.07;;;10.02;;
12912;SDS011;6524;51.368;11.984;2023-04-07T12:04:27;10.95;;;9.98;;
12912;SDS011;6524;51.368;11.984;2023-04-07T12:14:34;10.93;;;9.82;;
12912;SDS011;6524;51.368;11.984;2023-04-07T12:19:35;10.45;;;9.45;;
12912;SDS011;6524;51.368;11.984;2023-04-07T12:24:38;10.85;;;9.75;;
12912;SDS011;6524;51.368;11.984;2023-04-07T12:29:38;9.77;;;8.87;;
12912;SDS011;6524;51.368;11.984;2023-04-07T12:34:39;10.55;;;9.45;;
12912;SDS011;6524;51.368;11.984;2023-04-07T12:39:39;10.30;;;9.30;;
12912;SDS011;6524;51.368;11.984;2023-04-07T12:44:40;10.20;;;9.20;;
12912;SDS011;6524;51.368;11.984;2023-04-07T12:49:40;10.40;;;9.40;;
12912;SDS011;6524;51.368;11.984;2023-04-07T12:54:40;10.30;;;9.30;;
12912;SDS011;6524;51.368;11.984;2023-04-07T12:59:43;10.13;;;9.15;;
12912;SDS011;6524;51.368;11.984;2023-04-07T13:04:43;10.30;;;9.18;;
12912;SDS011;6524;51.368;11.984;2023-04-07T13:09:45;9.50;;;8.60;;
12912;SDS011;6524;51.368;11.984;2023-04-07T13:14:46;9.37;;;8.47;;
12912;SDS011;6524;51.368;11.984;2023-04-07T13:19:46;9.27;;;8.33;;
12912;SDS011;6524;51.368;11.984;2023-04-07T13:24:46;8.35;;;7.50;;
12912;SDS011;6524;51.368;11.984;2023-04-07T13:29:47;8.32;;;7.53;;
12912;SDS011;6524;51.368;11.984;2023-04-07T13:34:48;8.43;;;7.63;;
12912;SDS011;6524;51.368;11.984;2023-04-07T13:39:48;8.05;;;7.25;;
12912;SDS011;6524;51.368;11.984;2023-04-07T13:44:48;8.60;;;7.57;;
12912;SDS011;6524;51.368;11.984;2023-04-07T13:49:49;8.40;;;7.20;;
12912;SDS011;6524;51.368;11.984;2023-04-07T13:54:53;7.97;;;7.18;;
12912;SDS011;6524;51.368;11.984;2023-04-07T13:59:53;7.72;;;6.93;;
12912;SDS011;6524;51.368;11.984;2023-04-07T14:04:54;7.90;;;7.10;;
12912;SDS011;6524;51.368;11.984;2023-04-07T14:09:54;7.93;;;7.13;;
12912;SDS011;6524;51.368;11.984;2023-04-07T14:14:54;8.43;;;7.57;;
12912;SDS011;6524;51.368;11.984;2023-04-07T14:19:56;6.93;;;6.25;;
12912;SDS011;6524;51.368;11.984;2023-04-07T14:24:56;8.00;;;6.95;;
12912;SDS011;6524;51.368;11.984;2023-04-07T14:29:57;8.48;;;6.97;;
12912;SDS011;6524;51.368;11.984;2023-04-07T14:34:58;8.60;;;7.05;;
12912;SDS011;6524;51.368;11.984;2023-04-07T14:39:58;7.97;;;6.90;;
12912;SDS011;6524;51.368;11.984;2023-04-07T14:44:59;7.72;;;6.93;;
12912;SDS011;6524;51.368;11.984;2023-04-07T14:50:00;8.10;;;7.30;;
12912;SDS011;6524;51.368;11.984;2023-04-07T14:55:01;8.68;;;7.82;;
12912;SDS011;6524;51.368;11.984;2023-04-07T15:00:02;8.70;;;7.80;;
12912;SDS011;6524;51.368;11.984;2023-04-07T15:05:06;8.27;;;7.45;;
12912;SDS011;6524;51.368;11.984;2023-04-07T15:10:09;9.70;;;7.82;;
12912;SDS011;6524;51.368;11.984;2023-04-07T15:15:10;9.32;;;7.47;;
12912;SDS011;6524;51.368;11.984;2023-04-07T15:20:11;15.70;;;11.65;;
12912;SDS011;6524;51.368;11.984;2023-04-07T15:25:12;18.08;;;13.30;;
12912;SDS011;6524;51.368;11.984;2023-04-07T15:30:12;9.32;;;8.20;;
12912;SDS011;6524;51.368;11.984;2023-04-07T15:35:12;8.82;;;7.90;;
12912;SDS011;6524;51.368;11.984;2023-04-07T15:40:13;9.23;;;7.75;;
12912;SDS011;6524;51.368;11.984;2023-04-07T15:45:13;13.73;;;10.75;;
12912;SDS011;6524;51.368;11.984;2023-04-07T15:50:13;11.55;;;8.30;;
12912;SDS011;6524;51.368;11.984;2023-04-07T15:55:14;8.17;;;7.37;;
12912;SDS011;6524;51.368;11.984;2023-04-07T16:00:14;8.30;;;6.85;;
12912;SDS011;6524;51.368;11.984;2023-04-07T16:05:16;7.97;;;7.18;;
12912;SDS011;6524;51.368;11.984;2023-04-07T16:10:17;8.82;;;7.63;;
12912;SDS011;6524;51.368;11.984;2023-04-07T16:15:20;8.02;;;7.22;;
12912;SDS011;6524;51.368;11.984;2023-04-07T16:20:21;9.30;;;7.28;;
12912;SDS011;6524;51.368;11.984;2023-04-07T16:25:21;7.45;;;6.75;;
12912;SDS011;6524;51.368;11.984;2023-04-07T16:30:22;8.88;;;7.30;;
12912;SDS011;6524;51.368;11.984;2023-04-07T16:35:24;10.25;;;8.15;;
12912;SDS011;6524;51.368;11.984;2023-04-07T16:40:24;9.10;;;7.75;;
12912;SDS011;6524;51.368;11.984;2023-04-07T16:45:25;9.68;;;7.75;;
12912;SDS011;6524;51.368;11.984;2023-04-07T16:50:25;9.52;;;7.20;;
12912;SDS011;6524;51.368;11.984;2023-04-07T16:55:25;10.23;;;7.30;;
12912;SDS011;6524;51.368;11.984;2023-04-07T17:00:26;12.00;;;9.97;;
12912;SDS011;6524;51.368;11.984;2023-04-07T17:05:26;8.75;;;7.85;;
12912;SDS011;6524;51.368;11.984;2023-04-07T17:10:26;13.52;;;10.85;;
12912;SDS011;6524;51.368;11.984;2023-04-07T17:15:27;12.25;;;10.32;;
12912;SDS011;6524;51.368;11.984;2023-04-07T17:20:27;21.95;;;14.95;;
12912;SDS011;6524;51.368;11.984;2023-04-07T17:25:27;11.27;;;9.07;;
12912;SDS011;6524;51.368;11.984;2023-04-07T17:30:27;9.30;;;8.32;;
12912;SDS011;6524;51.368;11.984;2023-04-07T17:35:28;8.80;;;7.90;;
12912;SDS011;6524;51.368;11.984;2023-04-07T17:40:29;10.25;;;7.40;;
12912;SDS011;6524;51.368;11.984;2023-04-07T17:45:30;9.77;;;8.10;;
12912;SDS011;6524;51.368;11.984;2023-04-07T17:50:30;9.07;;;7.70;;
12912;SDS011;6524;51.368;11.984;2023-04-07T17:55:31;9.07;;;7.68;;
12912;SDS011;6524;51.368;11.984;2023-04-07T18:00:32;7.70;;;6.90;;
12912;SDS011;6524;51.368;11.984;2023-04-07T18:05:32;9.80;;;7.63;;
12912;SDS011;6524;51.368;11.984;2023-04-07T18:10:33;8.45;;;5.80;;
12912;SDS011;6524;51.368;11.984;2023-04-07T18:15:33;6.97;;;5.53;;
12912;SDS011;6524;51.368;11.984;2023-04-07T18:20:34;7.03;;;6.33;;
12912;SDS011;6524;51.368;11.984;2023-04-07T18:25:35;9.63;;;6.60;;
12912;SDS011;6524;51.368;11.984;2023-04-07T18:30:35;7.83;;;6.50;;
12912;SDS011;6524;51.368;11.984;2023-04-07T18:35:36;7.77;;;6.90;;
12912;SDS011;6524;51.368;11.984;2023-04-07T18:40:36;7.43;;;6.63;;
12912;SDS011;6524;51.368;11.984;2023-04-07T18:45:37;7.67;;;6.53;;
12912;SDS011;6524;51.368;11.984;2023-04-07T18:50:37;9.27;;;7.85;;
12912;SDS011;6524;51.368;11.984;2023-04-07T18:55:37;7.70;;;5.70;;
12912;SDS011;6524;51.368;11.984;2023-04-07T19:00:38;7.93;;;5.67;;
12912;SDS011;6524;51.368;11.984;2023-04-07T19:05:38;6.83;;;6.13;;
12912;SDS011;6524;51.368;11.984;2023-04-07T19:10:39;8.70;;;6.00;;
12912;SDS011;6524;51.368;11.984;2023-04-07T19:15:39;6.70;;;5.73;;
12912;SDS011;6524;51.368;11.984;2023-04-07T19:20:44;7.07;;;5.70;;
12912;SDS011;6524;51.368;11.984;2023-04-07T19:25:46;7.60;;;5.73;;
12912;SDS011;6524;51.368;11.984;2023-04-07T19:30:46;6.07;;;5.43;;
12912;SDS011;6524;51.368;11.984;2023-04-07T19:35:46;5.90;;;4.97;;
12912;SDS011;6524;51.368;11.984;2023-04-07T19:40:47;6.17;;;5.13;;
12912;SDS011;6524;51.368;11.984;2023-04-07T19:45:47;6.77;;;5.13;;
12912;SDS011;6524;51.368;11.984;2023-04-07T19:50:48;7.70;;;5.10;;
12912;SDS011;6524;51.368;11.984;2023-04-07T19:55:50;5.77;;;5.17;;
12912;SDS011;6524;51.368;11.984;2023-04-07T20:00:51;5.90;;;4.87;;
12912;SDS011;6524;51.368;11.984;2023-04-07T20:05:51;6.67;;;5.43;;
12912;SDS011;6524;51.368;11.984;2023-04-07T20:10:52;6.40;;;5.60;;
12912;SDS011;6524;51.368;11.984;2023-04-07T20:15:52;6.67;;;5.80;;
12912;SDS011;6524;51.368;11.984;2023-04-07T20:20:57;7.78;;;5.90;;
12912;SDS011;6524;51.368;11.984;2023-04-07T20:26:01;5.43;;;4.80;;
12912;SDS011;6524;51.368;11.984;2023-04-07T20:31:01;4.57;;;4.17;;
12912;SDS011;6524;51.368;11.984;2023-04-07T20:36:02;4.37;;;3.97;;
12912;SDS011;6524;51.368;11.984;2023-04-07T20:41:02;4.53;;;3.80;;
12912;SDS011;6524;51.368;11.984;2023-04-07T20:46:03;4.67;;;4.07;;
12912;SDS011;6524;51.368;11.984;2023-04-07T20:51:03;4.60;;;4.20;;
12912;SDS011;6524;51.368;11.984;2023-04-07T20:56:03;4.77;;;4.10;;
12912;SDS011;6524;51.368;11.984;2023-04-07T21:01:04;4.33;;;3.93;;
12912;SDS011;6524;51.368;11.984;2023-04-07T21:06:04;6.80;;;6.10;;
12912;SDS011;6524;51.368;11.984;2023-04-07T21:11:06;18.30;;;12.17;;
12912;SDS011;6524;51.368;11.984;2023-04-07T21:16:06;27.20;;;16.43;;
12912;SDS011;6524;51.368;11.984;2023-04-07T21:21:06;25.37;;;16.07;;
12912;SDS011;6524;51.368;11.984;2023-04-07T21:26:07;41.73;;;24.53;;
12912;SDS011;6524;51.368;11.984;2023-04-07T21:31:08;29.57;;;18.03;;
12912;SDS011;6524;51.368;11.984;2023-04-07T21:36:08;23.70;;;14.70;;
12912;SDS011;6524;51.368;11.984;2023-04-07T21:41:08;25.80;;;14.83;;
12912;SDS011;6524;51.368;11.984;2023-04-07T21:46:09;21.87;;;13.07;;
12912;SDS011;6524;51.368;11.984;2023-04-07T21:51:09;8.70;;;6.30;;
12912;SDS011;6524;51.368;11.984;2023-04-07T21:56:10;5.03;;;3.97;;
12912;SDS011;6524;51.368;11.984;2023-04-07T22:01:12;4.63;;;4.13;;
12912;SDS011;6524;51.368;11.984;2023-04-07T22:06:12;5.07;;;4.40;;
12912;SDS011;6524;51.368;11.984;2023-04-07T22:11:13;5.10;;;4.60;;
12912;SDS011;6524;51.368;11.984;2023-04-07T22:16:13;4.90;;;4.33;;
12912;SDS011;6524;51.368;11.984;2023-04-07T22:21:14;6.00;;;5.10;;
12912;SDS011;6524;51.368;11.984;2023-04-07T22:26:15;4.60;;;4.20;;
12912;SDS011;6524;51.368;11.984;2023-04-07T22:31:15;5.17;;;4.60;;
12912;SDS011;6524;51.368;11.984;2023-04-07T22:36:16;4.77;;;4.23;;
12912;SDS011;6524;51.368;11.984;2023-04-07T22:41:16;4.50;;;4.10;;
12912;SDS011;6524;51.368;11.984;2023-04-07T22:46:16;5.03;;;4.40;;
12912;SDS011;6524;51.368;11.984;2023-04-07T22:51:17;6.87;;;4.83;;
12912;SDS011;6524;51.368;11.984;2023-04-07T22:56:17;5.30;;;4.20;;
12912;SDS011;6524;51.368;11.984;2023-04-07T23:01:18;4.57;;;4.17;;
12912;SDS011;6524;51.368;11.984;2023-04-07T23:06:18;4.60;;;4.20;;
12912;SDS011;6524;51.368;11.984;2023-04-07T23:11:18;4.73;;;4.30;;
12912;SDS011;6524;51.368;11.984;2023-04-07T23:16:19;5.70;;;4.57;;
12912;SDS011;6524;51.368;11.984;2023-04-07T23:21:19;5.00;;;4.50;;
12912;SDS011;6524;51.368;11.984;2023-04-07T23:26:20;5.30;;;4.80;;
12912;SDS011;6524;51.368;11.984;2023-04-07T23:31:20;4.87;;;4.40;;
12912;SDS011;6524;51.368;11.984;2023-04-07T23:36:21;5.57;;;4.77;;
12912;SDS011;6524;51.368;11.984;2023-04-07T23:41:21;5.50;;;4.90;;
12912;SDS011;6524;51.368;11.984;2023-04-07T23:46:22;5.30;;;4.80;;
12912;SDS011;6524;51.368;11.984;2023-04-07T23:51:23;6.17;;;5.53;;
12912;SDS011;6524;51.368;11.984;2023-04-07T23:56:23;5.43;;;4.93;;
